sensor_id;sensor_type;location;lat;lon;timestamp;temperature;humidity
17489;DHT22;8861;52.644;4.734;2023-10-13T00:01:09;16.90;99.90
17489;DHT22;8861;52.644;4.734;2023-10-13T00:03:38;16.90;99.90
17489;DHT22;8861;52.644;4.734;2023-10-13T00:06:06;16.90;99.90
17489;DHT22;8861;52.644;4.734;2023-10-13T00:08:35;16.90;99.90
17489;DHT22;8861;52.644;4.734;2023-10-13T00:11:05;17.00;99.90
17489;DHT22;8861;52.644;4.734;2023-10-13T00:13:35;17.00;99.90
17489;DHT22;8861;52.644;4.734;2023-10-13T00:16:08;16.90;99.90
17489;DHT22;8861;52.644;4.734;2023-10-13T00:18:43;17.00;99.90
17489;DHT22;8861;52.644;4.734;2023-10-13T00:21:10;17.00;99.90
17489;DHT22;8861;52.644;4.734;2023-10-13T00:23:44;17.00;99.90
17489;DHT22;8861;52.644;4.734;2023-10-13T00:26:18;17.00;99.90
17489;DHT22;8861;52.644;4.734;2023-10-13T00:28:49;17.00;99.90
17489;DHT22;8861;52.644;4.734;2023-10-13T00:31:24;17.00;99.90
17489;DHT22;8861;52.644;4.734;2023-10-13T00:33:54;17.00;99.90
17489;DHT22;8861;52.644;4.734;2023-10-13T00:36:26;17.00;99.90
17489;DHT22;8861;52.644;4.734;2023-10-13T00:38:54;17.00;99.90
17489;DHT22;8861;52.644;4.734;2023-10-13T00:41:21;17.00;99.90
17489;DHT22;8861;52.644;4.734;2023-10-13T00:44:09;17.00;99.90
17489;DHT22;8861;52.644;4.734;2023-10-13T00:46:36;17.00;99.90
17489;DHT22;8861;52.644;4.734;2023-10-13T00:49:05;17.00;99.90
17489;DHT22;8861;52.644;4.734;2023-10-13T00:51:35;17.00;99.90
17489;DHT22;8861;52.644;4.734;2023-10-13T00:54:04;17.00;99.90
17489;DHT22;8861;52.644;4.734;2023-10-13T00:56:38;17.00;99.90
17489;DHT22;8861;52.644;4.734;2023-10-13T00:59:11;17.00;99.90
17489;DHT22;8861;52.644;4.734;2023-10-13T01:01:39;17.00;99.90
17489;DHT22;8861;52.644;4.734;2023-10-13T01:04:08;17.00;99.90
17489;DHT22;8861;52.644;4.734;2023-10-13T01:06:38;17.00;99.90
17489;DHT22;8861;52.644;4.734;2023-10-13T01:09:07;17.00;99.90
17489;DHT22;8861;52.644;4.734;2023-10-13T01:11:40;17.00;99.90
17489;DHT22;8861;52.644;4.734;2023-10-13T01:14:06;17.00;99.90
17489;DHT22;8861;52.644;4.734;2023-10-13T01:16:33;17.00;99.90
17489;DHT22;8861;52.644;4.734;2023-10-13T01:18:59;17.00;99.90
17489;DHT22;8861;52.644;4.734;2023-10-13T01:21:30;16.90;99.90
17489;DHT22;8861;52.644;4.734;2023-10-13T01:24:00;16.90;99.90
17489;DHT22;8861;52.644;4.734;2023-10-13T01:26:33;16.90;99.90
17489;DHT22;8861;52.644;4.734;2023-10-13T01:29:04;16.90;99.90
17489;DHT22;8861;52.644;4.734;2023-10-13T01:31:38;16.90;99.90
17489;DHT22;8861;52.644;4.734;2023-10-13T01:34:11;16.90;99.90
17489;DHT22;8861;52.644;4.734;2023-10-13T01:36:38;16.90;99.90
17489;DHT22;8861;52.644;4.734;2023-10-13T01:39:07;16.80;99.90
17489;DHT22;8861;52.644;4.734;2023-10-13T01:41:36;16.80;99.90
17489;DHT22;8861;52.644;4.734;2023-10-13T01:44:04;16.80;99.90
17489;DHT22;8861;52.644;4.734;2023-10-13T01:46:32;16.80;99.90
17489;DHT22;8861;52.644;4.734;2023-10-13T01:48:58;16.80;99.90
17489;DHT22;8861;52.644;4.734;2023-10-13T01:51:25;16.80;99.90
17489;DHT22;8861;52.644;4.734;2023-10-13T01:53:53;16.80;99.90
17489;DHT22;8861;52.644;4.734;2023-10-13T01:56:25;16.80;99.90
17489;DHT22;8861;52.644;4.734;2023-10-13T01:58:55;16.70;99.90
17489;DHT22;8861;52.644;4.734;2023-10-13T02:01:22;16.80;99.90
17489;DHT22;8861;52.644;4.734;2023-10-13T02:03:55;16.70;99.90
17489;DHT22;8861;52.644;4.734;2023-10-13T02:06:29;16.70;99.90
17489;DHT22;8861;52.644;4.734;2023-10-13T02:09:03;16.70;99.90
17489;DHT22;8861;52.644;4.734;2023-10-13T02:11:37;16.70;99.90
17489;DHT22;8861;52.644;4.734;2023-10-13T02:14:04;16.70;99.90
17489;DHT22;8861;52.644;4.734;2023-10-13T02:16:30;16.70;99.90
17489;DHT22;8861;52.644;4.734;2023-10-13T02:18:57;16.80;99.90
17489;DHT22;8861;52.644;4.734;2023-10-13T02:21:30;16.70;99.90
17489;DHT22;8861;52.644;4.734;2023-10-13T02:23:58;16.80;99.90
17489;DHT22;8861;52.644;4.734;2023-10-13T02:26:30;16.80;99.90
17489;DHT22;8861;52.644;4.734;2023-10-13T02:29:00;16.80;99.90
17489;DHT22;8861;52.644;4.734;2023-10-13T02:31:28;16.80;99.90
17489;DHT22;8861;52.644;4.734;2023-10-13T02:33:55;16.80;99.90
17489;DHT22;8861;52.644;4.734;2023-10-13T02:36:21;16.80;99.90
17489;DHT22;8861;52.644;4.734;2023-10-13T02:39:02;16.80;99.90
17489;DHT22;8861;52.644;4.734;2023-10-13T02:41:33;16.80;99.90
17489;DHT22;8861;52.644;4.734;2023-10-13T02:44:05;16.80;99.90
17489;DHT22;8861;52.644;4.734;2023-10-13T02:46:32;16.80;99.90
17489;DHT22;8861;52.644;4.734;2023-10-13T02:49:01;16.70;99.90
17489;DHT22;8861;52.644;4.734;2023-10-13T02:51:36;16.70;99.90
17489;DHT22;8861;52.644;4.734;2023-10-13T02:54:04;16.70;99.90
17489;DHT22;8861;52.644;4.734;2023-10-13T02:56:36;16.70;99.90
17489;DHT22;8861;52.644;4.734;2023-10-13T02:59:04;16.70;99.90
17489;DHT22;8861;52.644;4.734;2023-10-13T03:01:32;16.80;99.90
17489;DHT22;8861;52.644;4.734;2023-10-13T03:04:01;16.80;99.90
17489;DHT22;8861;52.644;4.734;2023-10-13T03:06:27;16.80;99.90
17489;DHT22;8861;52.644;4.734;2023-10-13T03:08:59;16.90;99.90
17489;DHT22;8861;52.644;4.734;2023-10-13T03:11:39;16.90;99.90
17489;DHT22;8861;52.644;4.734;2023-10-13T03:14:09;16.90;99.90
17489;DHT22;8861;52.644;4.734;2023-10-13T03:16:45;16.90;99.90
17489;DHT22;8861;52.644;4.734;2023-10-13T03:19:12;16.90;99.90
17489;DHT22;8861;52.644;4.734;2023-10-13T03:21:39;16.90;99.90
17489;DHT22;8861;52.644;4.734;2023-10-13T03:24:09;16.90;99.90
17489;DHT22;8861;52.644;4.734;2023-10-13T03:26:39;16.90;99.90
17489;DHT22;8861;52.644;4.734;2023-10-13T03:29:11;16.90;99.90
17489;DHT22;8861;52.644;4.734;2023-10-13T03:31:47;16.90;99.90
17489;DHT22;8861;52.644;4.734;2023-10-13T03:34:31;16.90;99.90
17489;DHT22;8861;52.644;4.734;2023-10-13T03:37:00;16.90;99.90
17489;DHT22;8861;52.644;4.734;2023-10-13T03:39:36;16.90;99.90
17489;DHT22;8861;52.644;4.734;2023-10-13T03:42:03;16.90;99.90
17489;DHT22;8861;52.644;4.734;2023-10-13T03:44:33;16.80;99.90
17489;DHT22;8861;52.644;4.734;2023-10-13T03:47:04;16.80;99.90
17489;DHT22;8861;52.644;4.734;2023-10-13T03:49:44;16.80;99.90
17489;DHT22;8861;52.644;4.734;2023-10-13T03:52:10;16.80;99.90
17489;DHT22;8861;52.644;4.734;2023-10-13T03:54:39;16.80;99.90
17489;DHT22;8861;52.644;4.734;2023-10-13T03:57:06;16.80;99.90
17489;DHT22;8861;52.644;4.734;2023-10-13T03:59:38;16.80;99.90
17489;DHT22;8861;52.644;4.734;2023-10-13T04:02:05;16.70;99.90
17489;DHT22;8861;52.644;4.734;2023-10-13T04:04:38;16.80;99.90
17489;DHT22;8861;52.644;4.734;2023-10-13T04:07:14;16.70;99.90
17489;DHT22;8861;52.644;4.734;2023-10-13T04:10:01;16.70;99.90
17489;DHT22;8861;52.644;4.734;2023-10-13T04:12:46;16.70;99.90
17489;DHT22;8861;52.644;4.734;2023-10-13T04:15:31;16.60;99.90
17489;DHT22;8861;52.644;4.734;2023-10-13T04:18:07;16.60;99.90
17489;DHT22;8861;52.644;4.734;2023-10-13T04:20:56;16.50;99.90
17489;DHT22;8861;52.644;4.734;2023-10-13T04:23:33;16.50;99.90
17489;DHT22;8861;52.644;4.734;2023-10-13T04:26:20;16.40;99.90
17489;DHT22;8861;52.644;4.734;2023-10-13T04:28:47;16.40;99.90
17489;DHT22;8861;52.644;4.734;2023-10-13T04:31:23;16.40;99.90
17489;DHT22;8861;52.644;4.734;2023-10-13T04:34:06;16.40;99.90
17489;DHT22;8861;52.644;4.734;2023-10-13T04:36:41;16.30;99.90
17489;DHT22;8861;52.644;4.734;2023-10-13T04:39:11;16.40;99.90
17489;DHT22;8861;52.644;4.734;2023-10-13T04:41:42;16.30;99.90
17489;DHT22;8861;52.644;4.734;2023-10-13T04:44:10;16.30;99.90
17489;DHT22;8861;52.644;4.734;2023-10-13T04:46:57;16.30;99.90
17489;DHT22;8861;52.644;4.734;2023-10-13T04:49:43;16.30;99.90
17489;DHT22;8861;52.644;4.734;2023-10-13T04:52:17;16.20;99.90
17489;DHT22;8861;52.644;4.734;2023-10-13T04:55:16;16.20;99.90
17489;DHT22;8861;52.644;4.734;2023-10-13T04:57:50;16.20;99.90
17489;DHT22;8861;52.644;4.734;2023-10-13T05:00:25;16.20;99.90
17489;DHT22;8861;52.644;4.734;2023-10-13T05:03:11;16.20;99.90
17489;DHT22;8861;52.644;4.734;2023-10-13T05:06:16;16.20;99.90
17489;DHT22;8861;52.644;4.734;2023-10-13T05:08:57;16.20;99.90
17489;DHT22;8861;52.644;4.734;2023-10-13T05:11:41;16.20;99.90
17489;DHT22;8861;52.644;4.734;2023-10-13T05:14:25;16.30;99.90
17489;DHT22;8861;52.644;4.734;2023-10-13T05:17:10;16.30;99.90
17489;DHT22;8861;52.644;4.734;2023-10-13T05:19:57;16.40;99.90
17489;DHT22;8861;52.644;4.734;2023-10-13T05:22:41;16.40;99.90
17489;DHT22;8861;52.644;4.734;2023-10-13T05:25:26;16.50;99.90
17489;DHT22;8861;52.644;4.734;2023-10-13T05:28:10;16.60;99.90
17489;DHT22;8861;52.644;4.734;2023-10-13T05:30:54;16.60;99.90
17489;DHT22;8861;52.644;4.734;2023-10-13T05:33:38;16.70;99.90
17489;DHT22;8861;52.644;4.734;2023-10-13T05:36:24;16.80;99.90
17489;DHT22;8861;52.644;4.734;2023-10-13T05:39:08;16.90;99.90
17489;DHT22;8861;52.644;4.734;2023-10-13T05:41:52;16.90;99.90
17489;DHT22;8861;52.644;4.734;2023-10-13T05:44:36;17.00;99.90
17489;DHT22;8861;52.644;4.734;2023-10-13T05:47:22;17.00;99.90
17489;DHT22;8861;52.644;4.734;2023-10-13T05:50:06;17.00;99.90
17489;DHT22;8861;52.644;4.734;2023-10-13T05:52:55;17.00;99.90
17489;DHT22;8861;52.644;4.734;2023-10-13T05:55:39;16.90;99.90
17489;DHT22;8861;52.644;4.734;2023-10-13T05:58:23;16.80;99.90
17489;DHT22;8861;52.644;4.734;2023-10-13T06:01:12;16.70;99.90
17489;DHT22;8861;52.644;4.734;2023-10-13T06:03:56;16.60;99.90
17489;DHT22;8861;52.644;4.734;2023-10-13T06:06:41;16.50;99.90
17489;DHT22;8861;52.644;4.734;2023-10-13T06:09:26;16.50;99.90
17489;DHT22;8861;52.644;4.734;2023-10-13T06:12:10;16.50;99.90
17489;DHT22;8861;52.644;4.734;2023-10-13T06:14:55;16.50;99.90
17489;DHT22;8861;52.644;4.734;2023-10-13T06:17:39;16.50;99.90
17489;DHT22;8861;52.644;4.734;2023-10-13T06:20:23;16.40;99.90
17489;DHT22;8861;52.644;4.734;2023-10-13T06:23:07;16.40;99.90
17489;DHT22;8861;52.644;4.734;2023-10-13T06:26:01;16.40;99.90
17489;DHT22;8861;52.644;4.734;2023-10-13T06:28:45;16.40;99.90
17489;DHT22;8861;52.644;4.734;2023-10-13T06:31:15;16.40;99.90
17489;DHT22;8861;52.644;4.734;2023-10-13T06:33:48;16.50;99.90
17489;DHT22;8861;52.644;4.734;2023-10-13T06:36:15;16.50;99.90
17489;DHT22;8861;52.644;4.734;2023-10-13T06:38:43;16.50;99.90
17489;DHT22;8861;52.644;4.734;2023-10-13T06:41:11;16.50;99.90
17489;DHT22;8861;52.644;4.734;2023-10-13T06:43:45;16.50;99.90
17489;DHT22;8861;52.644;4.734;2023-10-13T06:46:26;16.50;99.90
17489;DHT22;8861;52.644;4.734;2023-10-13T06:48:54;16.60;99.90
17489;DHT22;8861;52.644;4.734;2023-10-13T06:51:23;16.60;99.90
17489;DHT22;8861;52.644;4.734;2023-10-13T06:53:56;16.60;99.90
17489;DHT22;8861;52.644;4.734;2023-10-13T06:56:24;16.60;99.90
17489;DHT22;8861;52.644;4.734;2023-10-13T06:58:54;16.50;99.90
17489;DHT22;8861;52.644;4.734;2023-10-13T07:01:25;16.50;99.90
17489;DHT22;8861;52.644;4.734;2023-10-13T07:03:52;16.50;99.90
17489;DHT22;8861;52.644;4.734;2023-10-13T07:06:19;16.50;99.90
17489;DHT22;8861;52.644;4.734;2023-10-13T07:08:46;16.40;99.90
17489;DHT22;8861;52.644;4.734;2023-10-13T07:11:18;16.50;99.90
17489;DHT22;8861;52.644;4.734;2023-10-13T07:14:00;16.50;99.90
17489;DHT22;8861;52.644;4.734;2023-10-13T07:16:36;16.40;99.90
17489;DHT22;8861;52.644;4.734;2023-10-13T07:19:04;16.40;99.90
17489;DHT22;8861;52.644;4.734;2023-10-13T07:21:33;16.40;99.90
17489;DHT22;8861;52.644;4.734;2023-10-13T07:24:00;16.40;99.90
17489;DHT22;8861;52.644;4.734;2023-10-13T07:26:37;16.40;99.90
17489;DHT22;8861;52.644;4.734;2023-10-13T07:29:10;16.30;99.90
17489;DHT22;8861;52.644;4.734;2023-10-13T07:31:37;16.30;99.90
17489;DHT22;8861;52.644;4.734;2023-10-13T07:34:06;16.30;99.90
17489;DHT22;8861;52.644;4.734;2023-10-13T07:36:39;16.30;99.90
17489;DHT22;8861;52.644;4.734;2023-10-13T07:39:08;16.30;99.90
17489;DHT22;8861;52.644;4.734;2023-10-13T07:41:50;16.40;99.90
17489;DHT22;8861;52.644;4.734;2023-10-13T07:44:21;16.40;99.90
17489;DHT22;8861;52.644;4.734;2023-10-13T07:46:52;16.40;99.90
17489;DHT22;8861;52.644;4.734;2023-10-13T07:49:28;16.40;99.90
17489;DHT22;8861;52.644;4.734;2023-10-13T07:51:58;16.40;99.90
17489;DHT22;8861;52.644;4.734;2023-10-13T07:54:26;16.40;99.90
17489;DHT22;8861;52.644;4.734;2023-10-13T07:56:53;16.50;99.90
17489;DHT22;8861;52.644;4.734;2023-10-13T07:59:22;16.50;99.90
17489;DHT22;8861;52.644;4.734;2023-10-13T08:01:50;16.60;99.90
17489;DHT22;8861;52.644;4.734;2023-10-13T08:04:38;16.70;99.90
17489;DHT22;8861;52.644;4.734;2023-10-13T08:07:04;16.70;99.90
17489;DHT22;8861;52.644;4.734;2023-10-13T08:09:39;16.80;99.90
17489;DHT22;8861;52.644;4.734;2023-10-13T08:12:08;16.80;99.90
17489;DHT22;8861;52.644;4.734;2023-10-13T08:14:39;16.90;99.90
17489;DHT22;8861;52.644;4.734;2023-10-13T08:17:08;16.90;99.90
17489;DHT22;8861;52.644;4.734;2023-10-13T08:19:36;17.00;99.90
17489;DHT22;8861;52.644;4.734;2023-10-13T08:22:08;17.10;99.90
17489;DHT22;8861;52.644;4.734;2023-10-13T08:24:51;17.10;99.90
17489;DHT22;8861;52.644;4.734;2023-10-13T08:27:38;17.20;99.90
17489;DHT22;8861;52.644;4.734;2023-10-13T08:30:17;17.30;99.90
17489;DHT22;8861;52.644;4.734;2023-10-13T08:32:52;17.40;99.90
17489;DHT22;8861;52.644;4.734;2023-10-13T08:35:22;17.40;99.90
17489;DHT22;8861;52.644;4.734;2023-10-13T08:37:50;17.50;99.90
17489;DHT22;8861;52.644;4.734;2023-10-13T08:40:29;17.60;99.90
17489;DHT22;8861;52.644;4.734;2023-10-13T08:43:14;17.60;99.90
17489;DHT22;8861;52.644;4.734;2023-10-13T08:45:43;17.70;99.90
17489;DHT22;8861;52.644;4.734;2023-10-13T08:48:20;17.80;99.90
17489;DHT22;8861;52.644;4.734;2023-10-13T08:50:57;17.80;99.90
17489;DHT22;8861;52.644;4.734;2023-10-13T08:53:34;17.90;99.90
17489;DHT22;8861;52.644;4.734;2023-10-13T08:56:11;17.90;99.90
17489;DHT22;8861;52.644;4.734;2023-10-13T08:58:42;18.00;99.90
17489;DHT22;8861;52.644;4.734;2023-10-13T09:01:33;18.00;99.90
17489;DHT22;8861;52.644;4.734;2023-10-13T09:04:04;18.10;99.90
17489;DHT22;8861;52.644;4.734;2023-10-13T09:06:48;18.00;99.90
17489;DHT22;8861;52.644;4.734;2023-10-13T09:09:27;18.10;99.90
17489;DHT22;8861;52.644;4.734;2023-10-13T09:11:54;18.20;99.90
17489;DHT22;8861;52.644;4.734;2023-10-13T09:14:34;18.40;99.90
17489;DHT22;8861;52.644;4.734;2023-10-13T09:17:04;18.50;99.90
17489;DHT22;8861;52.644;4.734;2023-10-13T09:19:48;18.60;99.90
17489;DHT22;8861;52.644;4.734;2023-10-13T09:22:21;18.80;99.90
17489;DHT22;8861;52.644;4.734;2023-10-13T09:24:55;19.00;99.90
17489;DHT22;8861;52.644;4.734;2023-10-13T09:27:25;19.10;99.90
17489;DHT22;8861;52.644;4.734;2023-10-13T09:29:59;19.20;99.90
17489;DHT22;8861;52.644;4.734;2023-10-13T09:32:37;19.30;99.90
17489;DHT22;8861;52.644;4.734;2023-10-13T09:35:17;19.30;99.90
17489;DHT22;8861;52.644;4.734;2023-10-13T09:37:44;19.40;99.90
17489;DHT22;8861;52.644;4.734;2023-10-13T09:40:15;19.50;99.90
17489;DHT22;8861;52.644;4.734;2023-10-13T09:42:51;19.60;99.90
17489;DHT22;8861;52.644;4.734;2023-10-13T09:45:24;19.70;99.90
17489;DHT22;8861;52.644;4.734;2023-10-13T09:48:01;19.70;99.90
17489;DHT22;8861;52.644;4.734;2023-10-13T09:50:36;19.80;99.90
17489;DHT22;8861;52.644;4.734;2023-10-13T09:53:04;19.80;99.90
17489;DHT22;8861;52.644;4.734;2023-10-13T09:55:36;19.90;99.90
17489;DHT22;8861;52.644;4.734;2023-10-13T09:58:07;19.90;99.90
17489;DHT22;8861;52.644;4.734;2023-10-13T10:00:43;20.10;99.90
17489;DHT22;8861;52.644;4.734;2023-10-13T10:03:16;20.20;99.90
17489;DHT22;8861;52.644;4.734;2023-10-13T10:06:02;20.30;99.90
17489;DHT22;8861;52.644;4.734;2023-10-13T10:08:31;20.40;99.90
17489;DHT22;8861;52.644;4.734;2023-10-13T10:14:10;20.60;99.90
17489;DHT22;8861;52.644;4.734;2023-10-13T10:16:47;20.60;99.90
17489;DHT22;8861;52.644;4.734;2023-10-13T10:19:18;20.70;99.90
17489;DHT22;8861;52.644;4.734;2023-10-13T10:21:45;20.60;99.90
17489;DHT22;8861;52.644;4.734;2023-10-13T10:24:15;20.50;99.90
17489;DHT22;8861;52.644;4.734;2023-10-13T10:26:52;20.30;99.90
17489;DHT22;8861;52.644;4.734;2023-10-13T10:29:19;20.10;99.90
17489;DHT22;8861;52.644;4.734;2023-10-13T10:31:46;20.00;99.90
17489;DHT22;8861;52.644;4.734;2023-10-13T10:34:14;19.80;99.90
17489;DHT22;8861;52.644;4.734;2023-10-13T10:36:47;19.50;99.90
17489;DHT22;8861;52.644;4.734;2023-10-13T10:39:17;19.30;99.90
17489;DHT22;8861;52.644;4.734;2023-10-13T10:41:44;19.20;99.90
17489;DHT22;8861;52.644;4.734;2023-10-13T10:44:18;19.10;99.90
17489;DHT22;8861;52.644;4.734;2023-10-13T10:46:51;18.90;99.90
17489;DHT22;8861;52.644;4.734;2023-10-13T10:49:23;18.70;99.90
17489;DHT22;8861;52.644;4.734;2023-10-13T10:51:58;18.40;99.90
17489;DHT22;8861;52.644;4.734;2023-10-13T10:54:29;18.30;99.90
17489;DHT22;8861;52.644;4.734;2023-10-13T10:56:57;18.20;99.90
17489;DHT22;8861;52.644;4.734;2023-10-13T10:59:36;18.00;99.90
17489;DHT22;8861;52.644;4.734;2023-10-13T11:02:04;18.10;99.90
17489;DHT22;8861;52.644;4.734;2023-10-13T11:04:32;18.20;99.90
17489;DHT22;8861;52.644;4.734;2023-10-13T11:07:02;18.40;99.90
17489;DHT22;8861;52.644;4.734;2023-10-13T11:09:30;18.60;99.90
17489;DHT22;8861;52.644;4.734;2023-10-13T11:12:13;18.90;99.90
17489;DHT22;8861;52.644;4.734;2023-10-13T11:15:00;19.10;99.90
17489;DHT22;8861;52.644;4.734;2023-10-13T11:17:30;19.30;99.90
17489;DHT22;8861;52.644;4.734;2023-10-13T11:20:08;19.40;99.90
17489;DHT22;8861;52.644;4.734;2023-10-13T11:22:45;19.50;99.90
17489;DHT22;8861;52.644;4.734;2023-10-13T11:25:21;19.50;99.90
17489;DHT22;8861;52.644;4.734;2023-10-13T11:27:49;19.60;99.90
17489;DHT22;8861;52.644;4.734;2023-10-13T11:30:24;19.60;99.90
17489;DHT22;8861;52.644;4.734;2023-10-13T11:32:59;19.60;99.90
17489;DHT22;8861;52.644;4.734;2023-10-13T11:35:26;19.60;99.90
17489;DHT22;8861;52.644;4.734;2023-10-13T11:38:15;19.70;99.90
17489;DHT22;8861;52.644;4.734;2023-10-13T11:40:51;19.80;99.90
17489;DHT22;8861;52.644;4.734;2023-10-13T11:43:38;19.80;99.90
17489;DHT22;8861;52.644;4.734;2023-10-13T11:46:30;19.80;99.90
17489;DHT22;8861;52.644;4.734;2023-10-13T11:49:21;19.80;99.90
17489;DHT22;8861;52.644;4.734;2023-10-13T11:52:00;19.50;99.90
17489;DHT22;8861;52.644;4.734;2023-10-13T11:54:43;19.20;99.90
17489;DHT22;8861;52.644;4.734;2023-10-13T11:57:10;18.90;99.90
17489;DHT22;8861;52.644;4.734;2023-10-13T11:59:37;18.80;99.90
17489;DHT22;8861;52.644;4.734;2023-10-13T12:02:11;18.70;99.90
17489;DHT22;8861;52.644;4.734;2023-10-13T12:04:56;18.60;99.90
17489;DHT22;8861;52.644;4.734;2023-10-13T12:07:25;18.50;99.90
17489;DHT22;8861;52.644;4.734;2023-10-13T12:10:12;18.50;99.90
17489;DHT22;8861;52.644;4.734;2023-10-13T12:12:46;18.40;99.90
17489;DHT22;8861;52.644;4.734;2023-10-13T12:15:19;18.30;99.90
17489;DHT22;8861;52.644;4.734;2023-10-13T12:17:59;18.30;99.90
17489;DHT22;8861;52.644;4.734;2023-10-13T12:20:29;18.30;99.90
17489;DHT22;8861;52.644;4.734;2023-10-13T12:23:02;18.20;99.90
17489;DHT22;8861;52.644;4.734;2023-10-13T12:25:44;18.20;99.90
17489;DHT22;8861;52.644;4.734;2023-10-13T12:28:21;18.20;99.90
17489;DHT22;8861;52.644;4.734;2023-10-13T12:30:49;18.10;99.90
17489;DHT22;8861;52.644;4.734;2023-10-13T12:33:18;18.00;99.90
17489;DHT22;8861;52.644;4.734;2023-10-13T12:35:57;18.00;99.90
17489;DHT22;8861;52.644;4.734;2023-10-13T12:38:33;17.90;99.90
17489;DHT22;8861;52.644;4.734;2023-10-13T12:41:38;17.90;99.90
17489;DHT22;8861;52.644;4.734;2023-10-13T12:44:23;17.80;99.90
17489;DHT22;8861;52.644;4.734;2023-10-13T12:47:08;17.90;99.90
17489;DHT22;8861;52.644;4.734;2023-10-13T12:49:52;17.80;99.90
17489;DHT22;8861;52.644;4.734;2023-10-13T12:52:26;17.90;99.90
17489;DHT22;8861;52.644;4.734;2023-10-13T12:54:57;17.90;99.90
17489;DHT22;8861;52.644;4.734;2023-10-13T12:57:36;17.90;99.90
17489;DHT22;8861;52.644;4.734;2023-10-13T13:00:14;17.90;99.90
17489;DHT22;8861;52.644;4.734;2023-10-13T13:02:46;17.90;99.90
17489;DHT22;8861;52.644;4.734;2023-10-13T13:05:16;17.90;99.90
17489;DHT22;8861;52.644;4.734;2023-10-13T13:07:46;17.90;99.90
17489;DHT22;8861;52.644;4.734;2023-10-13T13:10:18;17.90;99.90
17489;DHT22;8861;52.644;4.734;2023-10-13T13:12:48;17.90;99.90
17489;DHT22;8861;52.644;4.734;2023-10-13T13:15:15;17.90;99.90
17489;DHT22;8861;52.644;4.734;2023-10-13T13:17:49;18.00;99.90
17489;DHT22;8861;52.644;4.734;2023-10-13T13:20:16;18.00;99.90
17489;DHT22;8861;52.644;4.734;2023-10-13T13:22:53;18.00;99.90
17489;DHT22;8861;52.644;4.734;2023-10-13T13:25:21;18.10;99.90
17489;DHT22;8861;52.644;4.734;2023-10-13T13:27:57;18.20;99.90
17489;DHT22;8861;52.644;4.734;2023-10-13T13:30:30;18.20;99.90
17489;DHT22;8861;52.644;4.734;2023-10-13T13:32:59;18.30;99.90
17489;DHT22;8861;52.644;4.734;2023-10-13T13:35:29;18.30;99.90
17489;DHT22;8861;52.644;4.734;2023-10-13T13:38:00;18.30;99.90
17489;DHT22;8861;52.644;4.734;2023-10-13T13:40:38;18.30;99.90
17489;DHT22;8861;52.644;4.734;2023-10-13T13:43:07;18.40;99.90
17489;DHT22;8861;52.644;4.734;2023-10-13T13:45:44;18.40;99.90
17489;DHT22;8861;52.644;4.734;2023-10-13T13:48:11;18.40;99.90
17489;DHT22;8861;52.644;4.734;2023-10-13T13:50:41;18.40;99.90
17489;DHT22;8861;52.644;4.734;2023-10-13T13:53:10;18.40;99.90
17489;DHT22;8861;52.644;4.734;2023-10-13T13:55:37;18.40;99.90
17489;DHT22;8861;52.644;4.734;2023-10-13T13:58:06;18.40;99.90
17489;DHT22;8861;52.644;4.734;2023-10-13T14:00:36;18.30;99.90
17489;DHT22;8861;52.644;4.734;2023-10-13T14:03:08;18.30;99.90
17489;DHT22;8861;52.644;4.734;2023-10-13T14:05:41;18.30;99.90
17489;DHT22;8861;52.644;4.734;2023-10-13T14:08:08;18.40;99.90
17489;DHT22;8861;52.644;4.734;2023-10-13T14:10:38;18.40;99.90
17489;DHT22;8861;52.644;4.734;2023-10-13T14:13:20;18.40;99.90
17489;DHT22;8861;52.644;4.734;2023-10-13T14:15:57;18.40;99.90
17489;DHT22;8861;52.644;4.734;2023-10-13T14:18:24;18.40;99.90
17489;DHT22;8861;52.644;4.734;2023-10-13T14:20:56;18.50;99.90
17489;DHT22;8861;52.644;4.734;2023-10-13T14:23:28;18.60;99.90
17489;DHT22;8861;52.644;4.734;2023-10-13T14:25:55;18.70;99.90
17489;DHT22;8861;52.644;4.734;2023-10-13T14:28:25;18.80;99.90
17489;DHT22;8861;52.644;4.734;2023-10-13T14:31:04;18.80;99.90
17489;DHT22;8861;52.644;4.734;2023-10-13T14:33:35;18.90;99.90
17489;DHT22;8861;52.644;4.734;2023-10-13T14:36:02;18.90;99.90
17489;DHT22;8861;52.644;4.734;2023-10-13T14:38:30;19.00;99.90
17489;DHT22;8861;52.644;4.734;2023-10-13T14:40:57;19.00;99.90
17489;DHT22;8861;52.644;4.734;2023-10-13T14:43:25;19.10;99.90
17489;DHT22;8861;52.644;4.734;2023-10-13T14:45:52;19.00;99.90
17489;DHT22;8861;52.644;4.734;2023-10-13T14:48:19;19.00;99.90
17489;DHT22;8861;52.644;4.734;2023-10-13T14:50:49;18.80;99.90
17489;DHT22;8861;52.644;4.734;2023-10-13T14:53:16;18.70;99.90
17489;DHT22;8861;52.644;4.734;2023-10-13T14:55:45;18.50;99.90
17489;DHT22;8861;52.644;4.734;2023-10-13T14:58:12;18.40;99.90
17489;DHT22;8861;52.644;4.734;2023-10-13T15:00:43;18.30;99.90
17489;DHT22;8861;52.644;4.734;2023-10-13T15:03:11;18.20;99.90
17489;DHT22;8861;52.644;4.734;2023-10-13T15:05:38;18.20;99.90
17489;DHT22;8861;52.644;4.734;2023-10-13T15:08:08;18.10;99.90
17489;DHT22;8861;52.644;4.734;2023-10-13T15:10:35;18.10;99.90
17489;DHT22;8861;52.644;4.734;2023-10-13T15:13:03;18.10;99.90
17489;DHT22;8861;52.644;4.734;2023-10-13T15:15:28;18.10;99.90
17489;DHT22;8861;52.644;4.734;2023-10-13T15:17:59;18.10;99.90
17489;DHT22;8861;52.644;4.734;2023-10-13T15:20:26;18.00;99.90
17489;DHT22;8861;52.644;4.734;2023-10-13T15:22:53;18.00;99.90
17489;DHT22;8861;52.644;4.734;2023-10-13T15:25:25;18.00;99.90
17489;DHT22;8861;52.644;4.734;2023-10-13T15:28:00;18.00;99.90
17489;DHT22;8861;52.644;4.734;2023-10-13T15:30:29;18.00;99.90
17489;DHT22;8861;52.644;4.734;2023-10-13T15:33:11;18.10;99.90
17489;DHT22;8861;52.644;4.734;2023-10-13T15:35:38;18.10;99.90
17489;DHT22;8861;52.644;4.734;2023-10-13T15:38:09;18.10;99.90
17489;DHT22;8861;52.644;4.734;2023-10-13T15:40:41;18.10;99.90
17489;DHT22;8861;52.644;4.734;2023-10-13T15:43:09;18.10;99.90
17489;DHT22;8861;52.644;4.734;2023-10-13T15:45:36;18.10;99.90
17489;DHT22;8861;52.644;4.734;2023-10-13T15:48:08;18.20;99.90
17489;DHT22;8861;52.644;4.734;2023-10-13T15:50:38;18.20;99.90
17489;DHT22;8861;52.644;4.734;2023-10-13T15:53:09;18.20;99.90
17489;DHT22;8861;52.644;4.734;2023-10-13T15:55:38;18.20;99.90
17489;DHT22;8861;52.644;4.734;2023-10-13T15:58:05;18.20;99.90
17489;DHT22;8861;52.644;4.734;2023-10-13T16:00:34;18.20;99.90
17489;DHT22;8861;52.644;4.734;2023-10-13T16:03:01;18.30;99.90
17489;DHT22;8861;52.644;4.734;2023-10-13T16:05:38;18.30;99.90
17489;DHT22;8861;52.644;4.734;2023-10-13T16:08:07;18.20;99.90
17489;DHT22;8861;52.644;4.734;2023-10-13T16:10:37;18.30;99.90
17489;DHT22;8861;52.644;4.734;2023-10-13T16:13:04;18.20;99.90
17489;DHT22;8861;52.644;4.734;2023-10-13T16:15:36;18.20;99.90
17489;DHT22;8861;52.644;4.734;2023-10-13T16:18:06;18.20;99.90
17489;DHT22;8861;52.644;4.734;2023-10-13T16:20:34;18.20;99.90
17489;DHT22;8861;52.644;4.734;2023-10-13T16:23:03;18.20;99.90
17489;DHT22;8861;52.644;4.734;2023-10-13T16:25:31;18.20;99.90
17489;DHT22;8861;52.644;4.734;2023-10-13T16:27:57;18.20;99.90